Time;durP1;ratioP1;P1;durP2;ratioP2;P2;SDS_P1;SDS_P2;PMS_P1;PMS_P2;Temp;Humidity;BMP_temperature;BMP_pressure;BME280_temperature;BME280_humidity;BME280_pressure;Samples;Min_cycle;Max_cycle;Signal;HPM_P1;HPM_P2
2023/05/03 00:00:53;;;;;;;6.85;4.72;;;9.20;71.30;;;;;;5072203;28;20032;-77
2023/05/03 00:03:22;;;;;;;7.18;5.05;;;9.20;71.20;;;;;;5072258;28;20064;-78
2023/05/03 00:05:48;;;;;;;7.93;4.95;;;9.20;71.00;;;;;;5072267;28;20016;-78
2023/05/03 00:08:14;;;;;;;8.50;5.28;;;9.30;71.10;;;;;;5072772;28;20032;-77
2023/05/03 00:10:40;;;;;;;9.85;4.90;;;9.20;70.80;;;;;;5072695;28;20016;-77
2023/05/03 00:13:06;;;;;;;7.97;4.63;;;9.20;70.60;;;;;;5072567;28;20099;-78
2023/05/03 00:15:32;;;;;;;5.85;4.43;;;9.20;70.50;;;;;;5072475;28;20016;-78
2023/05/03 00:17:57;;;;;;;6.15;4.60;;;9.10;70.80;;;;;;5073617;28;20032;-77
2023/05/03 00:20:24;;;;;;;8.48;5.10;;;9.00;70.90;;;;;;5076342;28;20032;-77
2023/05/03 00:22:50;;;;;;;7.93;5.05;;;9.00;71.10;;;;;;5076287;28;20115;-77
2023/05/03 00:25:15;;;;;;;9.10;5.18;;;8.90;71.60;;;;;;5058249;28;20032;-78
2023/05/03 00:27:41;;;;;;;9.77;5.03;;;8.90;71.80;;;;;;5076396;28;20040;-77
2023/05/03 00:30:08;;;;;;;9.25;5.43;;;8.90;71.80;;;;;;5076341;28;20469;-77
2023/05/03 00:32:34;;;;;;;8.23;5.68;;;8.90;71.80;;;;;;5076429;28;20032;-78
2023/05/03 00:35:00;;;;;;;9.10;5.40;;;8.90;71.70;;;;;;5076284;28;20023;-78
2023/05/03 00:37:26;;;;;;;6.68;5.10;;;8.90;71.80;;;;;;5076035;28;20102;-77
2023/05/03 00:39:52;;;;;;;8.77;5.63;;;8.80;71.80;;;;;;5076185;28;20439;-77
2023/05/03 00:42:17;;;;;;;7.07;5.35;;;8.70;71.90;;;;;;5076052;28;20025;-77
2023/05/03 00:44:43;;;;;;;7.80;5.15;;;8.70;72.20;;;;;;5076051;28;20028;-76
2023/05/03 00:47:09;;;;;;;7.38;5.15;;;8.60;72.30;;;;;;5075400;28;20089;-78
2023/05/03 00:49:35;;;;;;;8.48;5.18;;;8.60;72.20;;;;;;5076022;28;20103;-77
2023/05/03 00:52:01;;;;;;;7.30;5.07;;;8.70;72.20;;;;;;5076052;28;20028;-77
2023/05/03 00:54:28;;;;;;;7.55;5.32;;;8.70;72.10;;;;;;5058013;28;20028;-77
2023/05/03 00:56:55;;;;;;;6.30;4.85;;;8.50;72.00;;;;;;5075645;28;20029;-78
2023/05/03 00:59:21;;;;;;;7.28;5.53;;;8.40;72.20;;;;;;5075818;28;20024;-78
2023/05/03 01:01:52;;;;;;;8.05;4.93;;;8.40;72.70;;;;;;5075715;28;20028;-77
2023/05/03 01:04:20;;;;;;;8.65;4.88;;;8.40;72.60;;;;;;5075682;28;20012;-78
2023/05/03 01:07:10;;;;;;;9.73;5.47;;;8.40;72.50;;;;;;5076077;28;20365;-77
2023/05/03 01:09:44;;;;;;;8.80;6.25;;;8.40;72.40;;;;;;5076178;28;20016;-76
2023/05/03 01:12:25;;;;;;;8.07;5.57;;;8.40;72.50;;;;;;5083937;28;20020;-77
2023/05/03 01:15:06;;;;;;;8.18;5.80;;;8.40;73.20;;;;;;5100440;28;20028;-76
2023/05/03 01:17:38;;;;;;;8.02;5.72;;;8.40;72.30;;;;;;5100418;28;20031;-75
2023/05/03 01:20:12;;;;;;;8.02;5.10;;;8.30;72.60;;;;;;5082703;28;20033;-78
2023/05/03 01:23:11;;;;;;;8.82;5.50;;;8.30;72.60;;;;;;5076527;28;20034;-77
2023/05/03 01:25:36;;;;;;;7.18;5.63;;;8.30;73.60;;;;;;5075666;28;20025;-77
2023/05/03 01:28:02;;;;;;;9.60;5.68;;;8.20;73.00;;;;;;5057826;28;20078;-77
2023/05/03 01:30:29;;;;;;;7.10;5.68;;;8.20;73.20;;;;;;5074730;28;20481;-77
2023/05/03 01:33:12;;;;;;;8.90;5.30;;;8.20;73.10;;;;;;5075348;28;20063;-78
2023/05/03 01:35:55;;;;;;;6.80;5.60;;;8.20;73.10;;;;;;5075261;28;20028;-77
2023/05/03 01:38:22;;;;;;;8.93;5.82;;;8.10;73.50;;;;;;5075337;28;20075;-78
2023/05/03 01:40:52;;;;;;;8.27;5.55;;;8.10;73.70;;;;;;5075025;28;20024;-78
2023/05/03 01:43:19;;;;;;;8.13;5.13;;;8.10;73.90;;;;;;5075005;28;20024;-76
2023/05/03 01:45:45;;;;;;;7.25;5.38;;;8.00;73.70;;;;;;5075208;28;20527;-77
2023/05/03 01:48:15;;;;;;;7.90;5.38;;;8.00;73.50;;;;;;5075286;28;20460;-78
2023/05/03 01:50:41;;;;;;;9.63;5.57;;;8.00;73.70;;;;;;5075075;28;20119;-79
2023/05/03 01:53:06;;;;;;;9.13;6.32;;;7.90;74.20;;;;;;5074990;28;20137;-77
2023/05/03 01:55:32;;;;;;;11.35;6.50;;;7.90;73.90;;;;;;5074792;28;20035;-78
2023/05/03 01:57:57;;;;;;;9.80;6.03;;;7.90;74.00;;;;;;5074678;28;20025;-77
2023/05/03 02:00:23;;;;;;;12.63;7.43;;;7.80;74.40;;;;;;5074699;28;20028;-78
2023/05/03 02:02:49;;;;;;;11.63;7.40;;;7.70;74.70;;;;;;5074681;28;20029;-78
2023/05/03 02:05:14;;;;;;;17.95;8.25;;;7.70;74.70;;;;;;5074653;28;20012;-76
2023/05/03 02:07:40;;;;;;;12.30;7.88;;;7.70;74.70;;;;;;5074384;28;20036;-77
2023/05/03 02:10:06;;;;;;;12.52;7.28;;;7.70;74.60;;;;;;5056515;28;20056;-78
2023/05/03 02:12:32;;;;;;;12.63;7.68;;;7.70;74.70;;;;;;5074312;28;20082;-78
2023/05/03 02:14:58;;;;;;;9.35;6.70;;;7.70;74.70;;;;;;5074348;28;20025;-78
2023/05/03 02:17:25;;;;;;;12.02;6.93;;;7.70;74.90;;;;;;5074302;28;20381;-77
2023/05/03 02:19:51;;;;;;;9.57;6.82;;;7.70;74.90;;;;;;5074504;28;20052;-78
2023/05/03 02:22:17;;;;;;;11.60;6.97;;;7.70;74.80;;;;;;5056378;28;20158;-77
2023/05/03 02:24:42;;;;;;;8.82;6.40;;;7.70;74.80;;;;;;5074133;28;20100;-78
2023/05/03 02:27:08;;;;;;;10.15;6.53;;;7.60;74.80;;;;;;5074113;28;20093;-77
2023/05/03 02:29:34;;;;;;;8.85;6.35;;;7.60;74.80;;;;;;5074185;28;20031;-77
2023/05/03 02:31:59;;;;;;;7.90;6.10;;;7.60;74.90;;;;;;5072777;28;20020;-78
2023/05/03 02:34:26;;;;;;;7.97;6.10;;;7.50;74.90;;;;;;5074108;28;20021;-76
2023/05/03 02:36:52;;;;;;;8.70;6.75;;;7.50;74.90;;;;;;5073773;28;20064;-78
2023/05/03 02:39:17;;;;;;;9.65;6.28;;;7.50;74.60;;;;;;5074078;28;20029;-77
2023/05/03 02:41:43;;;;;;;9.25;6.78;;;7.50;74.70;;;;;;5072901;28;20093;-76
2023/05/03 02:44:09;;;;;;;10.95;6.55;;;7.50;74.70;;;;;;5073463;28;20021;-76
2023/05/03 02:46:34;;;;;;;8.70;6.68;;;7.50;74.60;;;;;;5073505;28;20032;-76
2023/05/03 02:49:00;;;;;;;9.40;6.53;;;7.50;74.70;;;;;;5073851;28;20373;-77
2023/05/03 02:51:25;;;;;;;7.22;5.88;;;7.50;74.70;;;;;;5073717;28;20032;-77
2023/05/03 02:53:51;;;;;;;11.23;6.70;;;7.40;74.70;;;;;;5073410;28;20067;-76
2023/05/03 02:56:17;;;;;;;8.43;6.80;;;7.40;75.20;;;;;;5073463;28;20024;-75
2023/05/03 02:58:42;;;;;;;9.18;6.90;;;7.30;75.40;;;;;;5073267;28;20021;-76
2023/05/03 03:01:08;;;;;;;9.77;6.45;;;7.40;75.40;;;;;;5073473;28;20078;-75
2023/05/03 03:03:33;;;;;;;9.05;6.53;;;7.30;75.30;;;;;;5073286;28;20031;-77
2023/05/03 03:05:59;;;;;;;11.27;7.18;;;7.40;75.40;;;;;;5073352;28;20025;-77
2023/05/03 03:08:24;;;;;;;9.23;6.35;;;7.40;75.40;;;;;;5073385;28;20370;-76
2023/05/03 03:10:50;;;;;;;11.25;6.78;;;7.30;75.40;;;;;;5073222;28;20016;-77
2023/05/03 03:13:16;;;;;;;9.15;6.20;;;7.30;75.40;;;;;;5073300;28;20020;-78
2023/05/03 03:15:41;;;;;;;11.13;6.78;;;7.30;75.30;;;;;;5073330;28;20060;-77
2023/05/03 03:18:07;;;;;;;9.20;6.53;;;7.40;75.10;;;;;;5073318;28;20025;-77
2023/05/03 03:20:32;;;;;;;11.48;7.82;;;7.40;75.00;;;;;;5055281;28;20027;-79
2023/05/03 03:22:58;;;;;;;10.88;7.15;;;7.30;74.90;;;;;;5073308;28;20121;-79
2023/05/03 03:25:23;;;;;;;12.20;6.80;;;7.40;74.80;;;;;;5073170;28;20032;-78
2023/05/03 03:27:49;;;;;;;9.00;6.40;;;7.30;74.70;;;;;;5072937;28;20112;-78
2023/05/03 03:30:15;;;;;;;10.57;7.38;;;7.30;75.00;;;;;;5073128;28;20542;-79
2023/05/03 03:32:41;;;;;;;11.23;6.93;;;7.20;75.10;;;;;;5073186;28;20046;-78
2023/05/03 03:35:08;;;;;;;11.95;7.00;;;7.20;75.10;;;;;;5073070;28;20556;-78
2023/05/03 03:37:34;;;;;;;9.00;6.68;;;7.20;75.20;;;;;;5051328;28;20045;-79
2023/05/03 03:39:59;;;;;;;9.23;6.25;;;7.10;75.30;;;;;;5053024;28;20029;-77
2023/05/03 03:42:25;;;;;;;10.43;7.97;;;7.10;75.30;;;;;;5052663;28;20040;-78
2023/05/03 03:44:51;;;;;;;10.23;7.85;;;7.10;75.20;;;;;;5052880;28;20107;-79
2023/05/03 03:47:16;;;;;;;11.43;8.60;;;7.10;75.40;;;;;;5053023;28;20138;-78
2023/05/03 03:49:42;;;;;;;9.50;7.28;;;7.10;75.50;;;;;;5052940;28;20028;-77
2023/05/03 03:52:07;;;;;;;10.07;7.80;;;7.00;75.60;;;;;;5052843;28;20032;-77
2023/05/03 03:54:36;;;;;;;12.30;8.40;;;6.90;76.00;;;;;;5056108;28;20032;-75
2023/05/03 03:57:04;;;;;;;13.30;8.73;;;6.90;76.50;;;;;;5056673;28;20500;-78
2023/05/03 03:59:30;;;;;;;11.02;7.75;;;6.90;76.50;;;;;;5056535;28;20057;-76
2023/05/03 04:01:55;;;;;;;12.20;8.13;;;7.00;76.40;;;;;;5056893;28;20079;-77
2023/05/03 04:04:21;;;;;;;11.15;7.72;;;7.00;76.30;;;;;;5055114;28;20104;-76
2023/05/03 04:06:46;;;;;;;9.80;7.20;;;7.00;76.10;;;;;;5056072;28;20037;-79
2023/05/03 04:09:13;;;;;;;12.73;7.70;;;6.90;75.90;;;;;;5057053;28;20096;-78
2023/05/03 04:11:39;;;;;;;10.88;7.57;;;7.00;75.90;;;;;;5056586;28;20109;-78
2023/05/03 04:14:04;;;;;;;9.57;7.03;;;7.00;75.70;;;;;;5056531;28;20440;-78
2023/05/03 04:16:30;;;;;;;9.05;6.60;;;7.00;75.40;;;;;;5056254;28;20056;-79
2023/05/03 04:18:55;;;;;;;11.00;7.72;;;7.00;75.10;;;;;;5056322;28;20393;-80
2023/05/03 04:21:21;;;;;;;10.75;7.05;;;7.00;75.00;;;;;;5056498;28;20032;-77
2023/05/03 04:23:46;;;;;;;15.02;8.02;;;7.00;74.90;;;;;;5056108;28;20415;-76
2023/05/03 04:26:12;;;;;;;11.85;8.40;;;7.10;74.80;;;;;;5056349;28;20029;-76
2023/05/03 04:28:38;;;;;;;13.38;8.30;;;7.10;74.70;;;;;;5054904;28;20025;-78
2023/05/03 04:31:04;;;;;;;13.38;8.63;;;7.00;74.80;;;;;;5056355;28;20029;-78
2023/05/03 04:33:30;;;;;;;13.35;7.82;;;7.00;75.10;;;;;;5056328;28;20477;-78
2023/05/03 04:35:56;;;;;;;11.30;8.40;;;7.00;75.30;;;;;;5056447;28;20354;-77
2023/05/03 04:38:22;;;;;;;15.30;8.93;;;7.10;75.50;;;;;;5073868;28;20580;-77
2023/05/03 04:40:48;;;;;;;16.10;9.48;;;7.10;75.20;;;;;;5058154;28;20063;-76
2023/05/03 04:43:13;;;;;;;12.70;8.75;;;7.10;74.90;;;;;;5075728;28;20021;-76
2023/05/03 04:45:39;;;;;;;12.68;8.75;;;7.10;74.70;;;;;;5075897;28;20032;-78
2023/05/03 04:48:05;;;;;;;12.75;8.43;;;7.10;74.90;;;;;;5076108;28;20025;-77
2023/05/03 04:50:31;;;;;;;11.30;8.05;;;7.10;74.80;;;;;;5076340;28;20025;-78
2023/05/03 04:52:57;;;;;;;12.73;7.53;;;7.30;75.00;;;;;;5076337;28;20025;-77
2023/05/03 04:55:22;;;;;;;12.15;7.85;;;7.30;74.70;;;;;;5076170;28;20029;-76
2023/05/03 04:57:48;;;;;;;12.00;8.30;;;7.50;74.40;;;;;;5058136;28;20028;-75
2023/05/03 05:00:15;;;;;;;10.50;7.55;;;7.50;74.30;;;;;;5064885;28;20410;-77
2023/05/03 05:02:41;;;;;;;11.60;7.40;;;7.60;74.10;;;;;;5055098;28;20060;-74
2023/05/03 05:05:08;;;;;;;11.05;7.45;;;7.70;73.70;;;;;;5053761;28;20064;-74
2023/05/03 05:07:33;;;;;;;10.73;7.80;;;7.80;73.60;;;;;;5054618;28;20188;-73
2023/05/03 05:09:59;;;;;;;14.10;8.07;;;7.90;73.30;;;;;;5055187;28;20470;-72
2023/05/03 05:12:25;;;;;;;10.45;7.70;;;7.90;73.00;;;;;;5055660;28;20033;-73
2023/05/03 05:14:51;;;;;;;13.35;7.93;;;7.90;73.00;;;;;;5055495;28;20044;-76
2023/05/03 05:17:17;;;;;;;11.90;8.18;;;8.00;73.30;;;;;;5055439;28;20470;-75
2023/05/03 05:19:42;;;;;;;11.43;8.57;;;8.10;73.50;;;;;;5055635;28;20021;-75
2023/05/03 05:22:08;;;;;;;13.02;9.02;;;8.10;73.20;;;;;;5055525;28;20025;-75
2023/05/03 05:24:34;;;;;;;14.45;8.63;;;8.20;72.90;;;;;;5055579;28;20025;-73
2023/05/03 05:27:00;;;;;;;13.88;9.18;;;8.30;72.90;;;;;;5055737;28;20102;-73
2023/05/03 05:29:25;;;;;;;16.52;9.07;;;8.30;72.90;;;;;;5055521;28;20487;-73
2023/05/03 05:31:51;;;;;;;11.05;7.85;;;8.40;72.80;;;;;;5054995;28;20029;-73
2023/05/03 05:34:17;;;;;;;11.90;8.35;;;8.50;72.70;;;;;;5053926;28;20028;-73
2023/05/03 05:36:43;;;;;;;11.25;7.90;;;8.70;72.60;;;;;;5055052;28;20044;-74
2023/05/03 05:39:09;;;;;;;13.98;8.77;;;8.80;72.30;;;;;;5038003;28;20028;-73
2023/05/03 05:41:34;;;;;;;13.80;9.30;;;8.90;72.10;;;;;;5057410;28;20038;-74
2023/05/03 05:44:00;;;;;;;14.02;9.13;;;9.00;71.60;;;;;;5057367;28;20013;-74
2023/05/03 05:46:26;;;;;;;15.95;10.35;;;9.20;71.50;;;;;;5057826;28;20033;-74
2023/05/03 05:48:51;;;;;;;13.52;9.27;;;9.30;71.40;;;;;;5060314;28;20021;-75
2023/05/03 05:51:17;;;;;;;15.40;10.60;;;9.30;71.10;;;;;;5059990;28;20037;-76
2023/05/03 05:53:42;;;;;;;16.05;8.68;;;9.40;71.30;;;;;;5059549;28;20029;-74
2023/05/03 05:56:08;;;;;;;17.08;9.27;;;9.40;71.40;;;;;;5036653;28;20021;-73
2023/05/03 05:58:36;;;;;;;15.20;9.73;;;9.50;71.50;;;;;;5054348;28;20036;-72
2023/05/03 06:01:03;;;;;;;15.40;10.07;;;9.50;71.20;;;;;;5054293;28;20100;-72
2023/05/03 06:03:30;;;;;;;16.20;10.57;;;9.50;71.50;;;;;;5054251;28;20017;-74
2023/05/03 06:05:56;;;;;;;15.75;10.77;;;9.60;71.70;;;;;;5054337;28;20121;-72
2023/05/03 06:08:21;;;;;;;17.73;12.23;;;9.60;71.80;;;;;;5053603;28;20461;-73
2023/05/03 06:10:47;;;;;;;22.38;14.48;;;9.70;72.40;;;;;;5054313;28;20020;-72
2023/05/03 06:13:13;;;;;;;22.02;14.50;;;9.60;73.50;;;;;;5035997;28;20355;-73
2023/05/03 06:15:40;;;;;;;18.20;12.43;;;9.50;74.20;;;;;;5036043;28;20029;-73
2023/05/03 06:18:05;;;;;;;22.08;13.85;;;9.50;74.80;;;;;;5053957;28;20025;-74
2023/05/03 06:20:31;;;;;;;21.45;14.25;;;9.40;75.60;;;;;;5053583;28;20023;-74
2023/05/03 06:22:56;;;;;;;24.05;13.65;;;9.30;75.60;;;;;;5053718;28;20059;-75
2023/05/03 06:25:22;;;;;;;22.60;13.30;;;9.30;76.30;;;;;;5054054;28;20025;-72
2023/05/03 06:27:48;;;;;;;17.80;12.13;;;9.20;76.70;;;;;;5053901;28;20474;-73
2023/05/03 06:30:13;;;;;;;17.60;11.63;;;9.20;76.60;;;;;;5053832;28;20090;-73
2023/05/03 06:32:40;;;;;;;20.27;14.20;;;9.30;76.60;;;;;;5053922;28;20114;-73
2023/05/03 06:35:06;;;;;;;21.90;13.75;;;9.40;76.40;;;;;;5053819;28;20045;-73
2023/05/03 06:37:32;;;;;;;22.85;14.65;;;9.60;75.70;;;;;;5053613;28;20510;-73
2023/05/03 06:39:58;;;;;;;18.92;12.95;;;9.70;75.40;;;;;;5053533;28;20115;-73
2023/05/03 06:42:23;;;;;;;21.75;13.20;;;9.70;75.70;;;;;;5053626;28;20025;-73
2023/05/03 06:44:49;;;;;;;19.83;14.25;;;9.80;75.30;;;;;;5053344;28;20032;-72
2023/05/03 06:47:14;;;;;;;21.27;14.68;;;10.00;75.20;;;;;;5035397;28;20056;-73
2023/05/03 06:49:40;;;;;;;21.67;13.02;;;10.10;74.50;;;;;;5053335;28;20615;-73
2023/05/03 06:52:06;;;;;;;20.30;13.77;;;10.20;74.50;;;;;;5052666;28;20056;-73
2023/05/03 06:54:31;;;;;;;20.90;13.82;;;10.30;74.00;;;;;;5052394;28;20104;-73
2023/05/03 06:56:57;;;;;;;21.55;14.70;;;10.40;73.30;;;;;;5052536;28;20029;-72
2023/05/03 06:59:23;;;;;;;18.63;12.50;;;10.50;72.60;;;;;;5052724;28;20116;-73
2023/05/03 07:01:49;;;;;;;22.10;14.32;;;10.70;72.60;;;;;;5052535;28;20477;-73
2023/05/03 07:04:15;;;;;;;21.85;13.55;;;10.80;71.60;;;;;;5052783;28;20390;-73
2023/05/03 07:06:40;;;;;;;21.67;13.77;;;10.70;72.80;;;;;;5053031;28;20033;-73
2023/05/03 07:09:06;;;;;;;23.35;13.82;;;10.80;72.70;;;;;;5052943;28;20017;-73
2023/05/03 07:11:36;;;;;;;21.35;14.13;;;10.70;71.80;;;;;;5052802;28;20032;-73
2023/05/03 07:14:01;;;;;;;44.60;16.52;;;10.80;72.40;;;;;;5053013;28;20017;-74
2023/05/03 07:16:27;;;;;;;25.70;13.57;;;11.30;83.60;;;;;;5053059;28;20418;-73
2023/05/03 07:18:53;;;;;;;24.52;12.57;;;11.80;82.00;;;;;;5053179;28;20413;-72
2023/05/03 07:21:18;;;;;;;18.05;11.55;;;12.50;76.30;;;;;;5052797;28;20025;-74
2023/05/03 07:23:44;;;;;;;23.63;12.43;;;13.10;71.20;;;;;;5052848;28;20044;-76
2023/05/03 07:26:10;;;;;;;20.25;11.13;;;13.60;67.80;;;;;;5052828;28;20025;-74
2023/05/03 07:28:35;;;;;;;19.65;13.05;;;14.00;65.30;;;;;;5052483;28;20042;-78
2023/05/03 07:31:03;;;;;;;16.20;11.02;;;14.30;61.20;;;;;;5052892;28;20025;-77
2023/05/03 07:33:29;;;;;;;19.70;13.65;;;14.30;62.10;;;;;;5052837;28;20401;-88
2023/05/03 07:35:54;;;;;;;16.02;10.70;;;14.40;60.70;;;;;;5054457;28;20037;-82
2023/05/03 07:38:20;;;;;;;15.63;10.73;;;14.40;61.50;;;;;;5071372;28;20489;-86
2023/05/03 07:40:45;;;;;;;16.67;10.75;;;14.60;61.50;;;;;;5056574;28;20538;-84
2023/05/03 07:43:11;;;;;;;17.63;10.35;;;14.60;60.40;;;;;;5074471;28;20036;-84
2023/05/03 07:45:37;;;;;;;18.15;11.82;;;14.50;60.70;;;;;;5055287;28;20388;-83
2023/05/03 07:48:05;;;;;;;17.70;11.07;;;14.60;60.40;;;;;;5074231;28;20468;-92
2023/05/03 07:50:30;;;;;;;14.57;10.52;;;14.70;60.20;;;;;;5074151;28;20028;-80
2023/05/03 07:52:56;;;;;;;15.27;10.75;;;14.90;59.80;;;;;;5075070;28;20027;-83
2023/05/03 07:55:22;;;;;;;18.65;11.55;;;15.10;59.00;;;;;;5073328;28;20024;-83
2023/05/03 07:57:48;;;;;;;15.50;10.23;;;15.30;58.80;;;;;;5073176;28;20017;-76
2023/05/03 08:00:14;;;;;;;20.02;12.82;;;15.40;58.80;;;;;;5073073;28;20560;-74
2023/05/03 08:02:40;;;;;;;19.13;13.18;;;15.40;57.50;;;;;;5081324;28;20461;-73
2023/05/03 08:05:07;;;;;;;17.95;13.27;;;14.90;58.60;;;;;;5072714;28;20090;-73
2023/05/03 08:07:32;;;;;;;20.42;13.32;;;14.30;60.40;;;;;;5072423;28;20028;-72
2023/05/03 08:09:58;;;;;;;21.20;13.60;;;13.70;62.90;;;;;;5072527;28;20078;-74
2023/05/03 08:12:25;;;;;;;18.70;13.95;;;13.70;63.50;;;;;;5071875;28;20040;-74
2023/05/03 08:14:52;;;;;;;20.67;13.82;;;13.70;64.40;;;;;;5072001;28;20112;-73
2023/05/03 08:17:18;;;;;;;20.55;15.45;;;13.50;64.90;;;;;;5072007;28;20370;-73
2023/05/03 08:19:44;;;;;;;17.30;13.35;;;13.10;65.90;;;;;;5072187;28;20127;-73
2023/05/03 08:22:12;;;;;;;18.77;12.57;;;12.90;67.70;;;;;;5072293;28;20028;-73
2023/05/03 08:24:39;;;;;;;22.13;13.65;;;12.90;67.80;;;;;;5072052;28;20167;-73
2023/05/03 08:27:05;;;;;;;17.13;13.18;;;13.20;67.20;;;;;;5072091;28;20060;-72
2023/05/03 08:29:31;;;;;;;19.55;13.80;;;13.40;66.80;;;;;;5071993;28;20016;-73
2023/05/03 08:31:57;;;;;;;23.48;14.57;;;13.60;65.60;;;;;;5054103;28;20376;-75
2023/05/03 08:34:26;;;;;;;18.10;12.90;;;13.40;66.70;;;;;;5072253;28;20052;-74
2023/05/03 08:36:51;;;;;;;21.75;14.65;;;13.50;66.70;;;;;;5072033;28;20073;-74
2023/05/03 08:39:17;;;;;;;20.77;14.95;;;13.60;66.20;;;;;;5073600;28;20055;-76
2023/05/03 08:41:43;;;;;;;21.13;13.07;;;13.60;65.90;;;;;;5075813;28;20025;-74
2023/05/03 08:44:11;;;;;;;17.83;13.43;;;13.30;67.20;;;;;;5057786;28;20496;-74
2023/05/03 08:46:37;;;;;;;19.88;13.93;;;13.50;67.30;;;;;;5075312;28;20032;-75
2023/05/03 08:49:05;;;;;;;15.35;12.82;;;13.40;67.50;;;;;;5075694;28;20024;-76
2023/05/03 08:51:33;;;;;;;20.77;15.25;;;13.50;67.00;;;;;;5075632;28;20480;-74
2023/05/03 08:53:59;;;;;;;22.45;14.65;;;13.50;68.40;;;;;;5075582;28;20099;-74
2023/05/03 08:56:32;;;;;;;22.08;14.52;;;13.60;68.40;;;;;;5075734;28;20499;-74
2023/05/03 08:59:06;;;;;;;24.00;15.52;;;13.80;67.40;;;;;;5075412;28;20031;-73
2023/05/03 09:01:32;;;;;;;22.05;14.73;;;13.80;67.20;;;;;;5075440;28;20638;-74
2023/05/03 09:03:57;;;;;;;26.35;17.02;;;13.90;67.10;;;;;;5075448;28;20129;-74
2023/05/03 09:06:27;;;;;;;23.60;14.73;;;13.90;66.50;;;;;;5075014;28;20504;-74
2023/05/03 09:08:53;;;;;;;20.70;15.88;;;13.90;66.90;;;;;;5075200;28;20465;-74
2023/05/03 09:11:26;;;;;;;21.85;14.95;;;13.90;67.00;;;;;;5075202;28;20043;-73
2023/05/03 09:13:52;;;;;;;23.52;14.38;;;13.90;68.30;;;;;;5074784;28;20067;-74
2023/05/03 09:16:28;;;;;;;20.30;13.38;;;13.90;67.00;;;;;;5074849;28;20048;-74
2023/05/03 09:18:58;;;;;;;25.77;13.65;;;13.90;67.60;;;;;;5075359;28;20024;-73
2023/05/03 09:21:24;;;;;;;16.77;13.10;;;14.20;67.70;;;;;;5075163;28;20421;-74
2023/05/03 09:23:50;;;;;;;18.30;13.73;;;14.40;66.40;;;;;;5074960;28;20029;-74
2023/05/03 09:26:32;;;;;;;18.38;12.90;;;14.60;66.10;;;;;;5074928;28;20417;-74
2023/05/03 09:29:00;;;;;;;18.33;12.57;;;14.90;64.50;;;;;;5074881;28;20492;-74
2023/05/03 09:31:27;;;;;;;19.35;12.10;;;15.00;64.30;;;;;;5074777;28;20021;-74
2023/05/03 09:33:56;;;;;;;16.80;11.85;;;15.30;63.00;;;;;;5074546;28;20525;-74
2023/05/03 09:36:22;;;;;;;13.85;10.60;;;15.50;62.10;;;;;;5074088;28;20028;-74
2023/05/03 09:38:49;;;;;;;16.42;11.90;;;15.70;61.00;;;;;;5074624;28;20229;-74
2023/05/03 09:41:24;;;;;;;15.90;12.80;;;15.50;62.20;;;;;;5074536;28;20103;-74
2023/05/03 09:43:52;;;;;;;16.45;12.00;;;15.30;62.20;;;;;;5074601;28;20017;-76
2023/05/03 09:46:18;;;;;;;13.68;11.50;;;15.20;62.40;;;;;;5074737;28;20029;-74
2023/05/03 09:48:44;;;;;;;17.30;12.23;;;15.30;62.40;;;;;;5074458;28;20149;-75
2023/05/03 09:51:11;;;;;;;17.48;11.15;;;15.50;63.20;;;;;;5074035;28;20024;-75
2023/05/03 09:53:38;;;;;;;15.88;12.38;;;15.70;61.60;;;;;;5074590;28;20031;-75
2023/05/03 09:56:11;;;;;;;14.60;11.20;;;15.40;61.50;;;;;;5056238;28;20107;-79
2023/05/03 09:58:37;;;;;;;15.35;12.00;;;15.30;62.30;;;;;;5074156;28;20021;-79
2023/05/03 10:01:03;;;;;;;15.75;11.38;;;15.50;62.20;;;;;;5073816;28;20020;-75
2023/05/03 10:03:46;;;;;;;15.80;11.90;;;15.50;62.10;;;;;;5074061;28;20039;-75
2023/05/03 10:06:20;;;;;;;18.73;12.80;;;15.70;61.60;;;;;;5055842;28;20025;-75
2023/05/03 10:08:52;;;;;;;17.38;12.05;;;15.70;61.10;;;;;;5073859;28;20028;-76
2023/05/03 10:11:18;;;;;;;15.02;12.38;;;15.80;61.40;;;;;;5074035;28;20032;-76
2023/05/03 10:13:44;;;;;;;13.63;11.95;;;15.70;62.50;;;;;;5074044;28;20208;-76
2023/05/03 10:16:19;;;;;;;15.07;11.60;;;16.00;61.10;;;;;;5073496;28;20048;-76
2023/05/03 10:18:58;;;;;;;13.63;10.48;;;16.30;61.20;;;;;;5073426;28;20023;-75
2023/05/03 10:21:34;;;;;;;12.55;10.30;;;16.40;58.90;;;;;;5073853;28;20082;-74
2023/05/03 10:24:12;;;;;;;12.70;10.23;;;16.60;58.70;;;;;;5073510;28;20376;-73
2023/05/03 10:26:44;;;;;;;12.15;10.13;;;17.00;58.60;;;;;;5073119;28;20515;-76
2023/05/03 10:29:44;;;;;;;13.90;11.90;;;17.20;56.80;;;;;;5073391;28;20492;-74
2023/05/03 10:32:29;;;;;;;13.48;9.98;;;17.30;55.70;;;;;;5055579;28;20074;-74
2023/05/03 10:35:00;;;;;;;13.82;10.85;;;17.50;55.20;;;;;;5073375;28;20033;-76
2023/05/03 10:37:27;;;;;;;16.38;11.55;;;17.40;56.00;;;;;;5073573;28;20400;-75
2023/05/03 10:39:55;;;;;;;13.98;10.65;;;17.40;55.70;;;;;;5073700;28;20024;-75
2023/05/03 10:42:27;;;;;;;13.63;10.85;;;17.40;55.70;;;;;;5073361;28;20020;-75
2023/05/03 10:44:54;;;;;;;14.35;11.75;;;17.40;55.30;;;;;;5073394;28;20465;-75
2023/05/03 10:47:23;;;;;;;18.27;12.15;;;17.30;55.20;;;;;;5073575;28;20048;-76
2023/05/03 10:50:10;;;;;;;17.88;12.23;;;17.40;55.20;;;;;;5074052;28;20369;-76
2023/05/03 10:52:38;;;;;;;12.45;9.35;;;17.30;54.30;;;;;;5072984;28;20020;-73
2023/05/03 10:55:23;;;;;;;15.45;10.57;;;17.50;55.00;;;;;;5072991;28;20025;-73
2023/05/03 10:57:52;;;;;;;13.00;9.00;;;17.70;53.90;;;;;;5072731;28;20024;-73
2023/05/03 11:00:43;;;;;;;13.57;11.13;;;18.10;54.30;;;;;;5073067;28;20229;-73
2023/05/03 11:03:20;;;;;;;10.63;9.38;;;18.80;51.30;;;;;;5054423;28;20025;-75
2023/05/03 11:05:49;;;;;;;13.90;9.35;;;19.30;49.60;;;;;;5072972;28;20388;-74
2023/05/03 11:08:17;;;;;;;13.55;11.30;;;19.50;49.00;;;;;;5073028;28;20343;-73
2023/05/03 11:10:56;;;;;;;13.52;11.52;;;19.60;48.10;;;;;;5073012;28;20020;-74
2023/05/03 11:13:21;;;;;;;12.68;10.50;;;19.10;47.80;;;;;;5073255;28;20085;-74
2023/05/03 11:15:48;;;;;;;9.95;8.07;;;18.40;49.50;;;;;;5073067;28;20091;-74
2023/05/03 11:18:13;;;;;;;9.65;8.05;;;18.20;50.10;;;;;;5072801;28;20115;-74
2023/05/03 11:20:39;;;;;;;8.73;7.43;;;18.80;50.10;;;;;;5072522;28;20545;-74
2023/05/03 11:23:06;;;;;;;10.25;7.38;;;19.30;47.80;;;;;;5072810;28;20024;-75
2023/05/03 11:25:32;;;;;;;10.68;7.65;;;19.80;46.80;;;;;;5072909;28;20096;-75
2023/05/03 11:28:02;;;;;;;11.57;8.63;;;20.20;44.40;;;;;;5072796;28;20036;-75
2023/05/03 11:30:29;;;;;;;11.07;8.23;;;20.20;43.70;;;;;;5072661;28;20108;-74
2023/05/03 11:32:55;;;;;;;9.10;8.15;;;20.30;44.10;;;;;;5072532;28;20024;-75
2023/05/03 11:35:24;;;;;;;13.65;7.85;;;20.20;44.30;;;;;;5072852;28;20024;-74
2023/05/03 11:37:50;;;;;;;8.77;6.75;;;19.90;44.50;;;;;;5072504;28;20040;-75
2023/05/03 11:40:16;;;;;;;13.23;8.90;;;19.80;45.40;;;;;;5072431;28;20031;-74
2023/05/03 11:42:52;;;;;;;12.18;7.35;;;19.50;45.00;;;;;;5072714;28;20056;-74
2023/05/03 11:45:21;;;;;;;12.48;8.02;;;19.10;46.00;;;;;;5072634;28;20033;-75
2023/05/03 11:47:47;;;;;;;10.13;8.48;;;19.30;46.20;;;;;;5072622;28;20485;-75
2023/05/03 11:50:12;;;;;;;12.95;8.75;;;19.40;47.20;;;;;;5072467;28;20377;-75
2023/05/03 11:52:40;;;;;;;17.23;8.70;;;19.70;46.40;;;;;;5072565;28;20025;-75
2023/05/03 11:55:06;;;;;;;9.77;6.07;;;20.10;45.60;;;;;;5072534;28;20021;-75
2023/05/03 11:57:32;;;;;;;9.15;7.13;;;20.60;43.80;;;;;;5072292;28;20528;-79
2023/05/03 12:00:20;;;;;;;12.95;7.38;;;20.80;41.60;;;;;;5072479;28;20032;-82
2023/05/03 12:02:49;;;;;;;6.40;5.43;;;20.50;41.70;;;;;;5072480;28;20100;-81
2023/05/03 12:05:16;;;;;;;11.93;7.15;;;19.60;39.20;;;;;;5072574;28;20020;-74
2023/05/03 12:07:41;;;;;;;6.68;5.53;;;19.40;43.80;;;;;;5072218;28;20480;-79
2023/05/03 12:10:17;;;;;;;11.65;6.43;;;19.50;39.90;;;;;;5072472;28;20028;-77
2023/05/03 12:12:53;;;;;;;6.07;5.47;;;19.80;40.50;;;;;;5072373;28;20021;-81
2023/05/03 12:15:27;;;;;;;6.47;4.13;;;19.90;41.60;;;;;;5075664;28;20020;-80
2023/05/03 12:17:56;;;;;;;4.32;3.22;;;20.10;41.00;;;;;;5076480;28;20020;-81
2023/05/03 12:20:22;;;;;;;2.97;2.67;;;20.20;39.70;;;;;;5058062;28;20166;-77
2023/05/03 12:22:52;;;;;;;3.38;2.60;;;20.40;35.80;;;;;;5076460;28;20020;-76
2023/05/03 12:25:18;;;;;;;3.25;2.58;;;20.80;34.30;;;;;;5076225;28;20024;-80
2023/05/03 12:27:44;;;;;;;6.28;4.40;;;21.20;33.50;;;;;;5076022;28;20496;-80
2023/05/03 12:30:10;;;;;;;6.13;4.60;;;21.30;33.50;;;;;;5076110;28;20047;-81
2023/05/03 12:32:37;;;;;;;5.95;4.25;;;21.20;33.30;;;;;;5075746;28;20028;-81
2023/05/03 12:35:09;;;;;;;3.80;3.38;;;21.00;33.10;;;;;;5076171;28;20027;-80
2023/05/03 12:37:36;;;;;;;3.90;3.08;;;20.90;33.10;;;;;;5057634;28;20048;-74
2023/05/03 12:40:02;;;;;;;4.15;2.92;;;20.80;33.40;;;;;;5075787;28;20024;-79
2023/05/03 12:42:28;;;;;;;3.53;2.50;;;20.90;33.10;;;;;;5075684;28;20059;-81